sensor_id;sensor_type;location;lat;lon;timestamp;P1;durP1;ratioP1;P2;durP2;ratioP2
19691;SDS011;42748;50.016;19.890;2023-01-01T00:02:35;9.27;;;5.07;;
19691;SDS011;42748;50.016;19.890;2023-01-01T00:05:03;8.50;;;5.15;;
19691;SDS011;42748;50.016;19.890;2023-01-01T00:07:31;9.25;;;5.00;;
19691;SDS011;42748;50.016;19.890;2023-01-01T00:09:58;8.13;;;4.88;;
19691;SDS011;42748;50.016;19.890;2023-01-01T00:12:43;11.00;;;4.95;;
19691;SDS011;42748;50.016;19.890;2023-01-01T00:15:11;9.45;;;5.35;;
19691;SDS011;42748;50.016;19.890;2023-01-01T00:17:38;8.55;;;4.60;;
19691;SDS011;42748;50.016;19.890;2023-01-01T00:20:05;10.10;;;4.57;;
19691;SDS011;42748;50.016;19.890;2023-01-01T00:22:33;10.55;;;5.03;;
19691;SDS011;42748;50.016;19.890;2023-01-01T00:25:20;7.90;;;5.25;;
19691;SDS011;42748;50.016;19.890;2023-01-01T00:27:47;6.78;;;4.00;;
19691;SDS011;42748;50.016;19.890;2023-01-01T00:30:14;7.68;;;4.43;;
19691;SDS011;42748;50.016;19.890;2023-01-01T00:32:42;7.20;;;3.88;;
19691;SDS011;42748;50.016;19.890;2023-01-01T00:35:21;7.88;;;3.97;;
19691;SDS011;42748;50.016;19.890;2023-01-01T00:37:51;5.03;;;3.30;;
19691;SDS011;42748;50.016;19.890;2023-01-01T00:40:19;7.28;;;3.90;;
19691;SDS011;42748;50.016;19.890;2023-01-01T00:42:47;7.25;;;3.63;;
19691;SDS011;42748;50.016;19.890;2023-01-01T00:45:14;7.38;;;3.75;;
19691;SDS011;42748;50.016;19.890;2023-01-01T00:47:47;6.40;;;4.00;;
19691;SDS011;42748;50.016;19.890;2023-01-01T00:50:16;9.10;;;4.18;;
19691;SDS011;42748;50.016;19.890;2023-01-01T00:52:43;6.68;;;4.25;;
19691;SDS011;42748;50.016;19.890;2023-01-01T00:55:10;9.60;;;4.50;;
19691;SDS011;42748;50.016;19.890;2023-01-01T00:57:37;8.35;;;4.47;;
19691;SDS011;42748;50.016;19.890;2023-01-01T01:00:05;8.10;;;4.50;;
19691;SDS011;42748;50.016;19.890;2023-01-01T01:02:33;9.20;;;4.95;;
19691;SDS011;42748;50.016;19.890;2023-01-01T01:05:01;9.15;;;4.68;;
19691;SDS011;42748;50.016;19.890;2023-01-01T01:07:36;10.48;;;5.10;;
19691;SDS011;42748;50.016;19.890;2023-01-01T01:10:04;8.93;;;5.45;;
19691;SDS011;42748;50.016;19.890;2023-01-01T01:12:35;8.98;;;5.18;;
19691;SDS011;42748;50.016;19.890;2023-01-01T01:15:03;8.15;;;4.45;;
19691;SDS011;42748;50.016;19.890;2023-01-01T01:17:31;8.05;;;4.32;;
19691;SDS011;42748;50.016;19.890;2023-01-01T01:19:58;7.18;;;4.43;;
19691;SDS011;42748;50.016;19.890;2023-01-01T01:22:26;7.18;;;4.35;;
19691;SDS011;42748;50.016;19.890;2023-01-01T01:24:55;7.35;;;4.00;;
19691;SDS011;42748;50.016;19.890;2023-01-01T01:27:22;7.63;;;4.20;;
19691;SDS011;42748;50.016;19.890;2023-01-01T01:29:50;7.78;;;4.15;;
19691;SDS011;42748;50.016;19.890;2023-01-01T01:32:17;6.53;;;3.80;;
19691;SDS011;42748;50.016;19.890;2023-01-01T01:34:44;7.82;;;4.22;;
19691;SDS011;42748;50.016;19.890;2023-01-01T01:37:12;7.72;;;4.40;;
19691;SDS011;42748;50.016;19.890;2023-01-01T01:39:39;7.47;;;4.38;;
19691;SDS011;42748;50.016;19.890;2023-01-01T01:42:06;6.25;;;4.00;;
19691;SDS011;42748;50.016;19.890;2023-01-01T01:47:28;6.88;;;4.03;;
19691;SDS011;42748;50.016;19.890;2023-01-01T01:52:57;9.07;;;4.50;;
19691;SDS011;42748;50.016;19.890;2023-01-01T01:55:33;8.70;;;4.85;;
19691;SDS011;42748;50.016;19.890;2023-01-01T01:58:03;7.95;;;4.85;;
19691;SDS011;42748;50.016;19.890;2023-01-01T02:00:33;7.65;;;4.25;;
19691;SDS011;42748;50.016;19.890;2023-01-01T02:03:04;7.57;;;4.15;;
19691;SDS011;42748;50.016;19.890;2023-01-01T02:05:40;8.27;;;4.03;;
19691;SDS011;42748;50.016;19.890;2023-01-01T02:08:08;7.28;;;4.20;;
19691;SDS011;42748;50.016;19.890;2023-01-01T02:10:37;8.52;;;4.50;;
19691;SDS011;42748;50.016;19.890;2023-01-01T02:13:04;9.07;;;4.90;;
19691;SDS011;42748;50.016;19.890;2023-01-01T02:18:39;7.07;;;4.20;;
19691;SDS011;42748;50.016;19.890;2023-01-01T02:21:13;7.57;;;4.20;;
19691;SDS011;42748;50.016;19.890;2023-01-01T02:29:32;7.07;;;4.53;;
19691;SDS011;42748;50.016;19.890;2023-01-01T02:32:18;9.95;;;5.10;;
19691;SDS011;42748;50.016;19.890;2023-01-01T02:34:59;11.80;;;5.90;;
19691;SDS011;42748;50.016;19.890;2023-01-01T02:37:50;8.70;;;5.13;;
19691;SDS011;42748;50.016;19.890;2023-01-01T02:40:22;12.10;;;6.40;;
19691;SDS011;42748;50.016;19.890;2023-01-01T02:42:51;15.77;;;7.90;;
19691;SDS011;42748;50.016;19.890;2023-01-01T02:45:20;14.77;;;8.27;;
19691;SDS011;42748;50.016;19.890;2023-01-01T02:47:48;13.00;;;7.05;;
19691;SDS011;42748;50.016;19.890;2023-01-01T02:50:18;9.70;;;6.07;;
19691;SDS011;42748;50.016;19.890;2023-01-01T02:53:06;8.73;;;5.20;;
19691;SDS011;42748;50.016;19.890;2023-01-01T02:56:05;9.55;;;5.30;;
19691;SDS011;42748;50.016;19.890;2023-01-01T02:58:46;9.77;;;5.28;;
19691;SDS011;42748;50.016;19.890;2023-01-01T03:01:48;13.20;;;6.75;;
19691;SDS011;42748;50.016;19.890;2023-01-01T03:04:28;13.40;;;7.15;;
19691;SDS011;42748;50.016;19.890;2023-01-01T03:07:12;14.82;;;7.78;;
19691;SDS011;42748;50.016;19.890;2023-01-01T03:17:50;13.57;;;6.45;;
19691;SDS011;42748;50.016;19.890;2023-01-01T03:20:34;11.18;;;6.15;;
19691;SDS011;42748;50.016;19.890;2023-01-01T03:23:09;10.30;;;6.07;;
19691;SDS011;42748;50.016;19.890;2023-01-01T03:25:50;9.38;;;5.43;;
19691;SDS011;42748;50.016;19.890;2023-01-01T03:28:21;10.15;;;5.38;;
19691;SDS011;42748;50.016;19.890;2023-01-01T03:30:53;10.05;;;5.68;;
19691;SDS011;42748;50.016;19.890;2023-01-01T03:33:23;10.45;;;5.53;;
19691;SDS011;42748;50.016;19.890;2023-01-01T03:38:41;11.30;;;5.20;;
19691;SDS011;42748;50.016;19.890;2023-01-01T03:43:54;9.90;;;5.82;;
19691;SDS011;42748;50.016;19.890;2023-01-01T03:46:29;9.98;;;5.57;;
19691;SDS011;42748;50.016;19.890;2023-01-01T03:48:58;9.57;;;5.70;;
19691;SDS011;42748;50.016;19.890;2023-01-01T03:59:59;10.07;;;5.55;;
19691;SDS011;42748;50.016;19.890;2023-01-01T04:02:51;10.00;;;5.70;;
19691;SDS011;42748;50.016;19.890;2023-01-01T04:05:34;9.98;;;5.38;;
19691;SDS011;42748;50.016;19.890;2023-01-01T04:08:04;10.35;;;5.30;;
19691;SDS011;42748;50.016;19.890;2023-01-01T04:10:33;9.88;;;5.22;;
19691;SDS011;42748;50.016;19.890;2023-01-01T04:13:03;8.93;;;5.25;;
19691;SDS011;42748;50.016;19.890;2023-01-01T04:15:31;8.73;;;5.07;;
19691;SDS011;42748;50.016;19.890;2023-01-01T04:18:01;10.50;;;5.47;;
19691;SDS011;42748;50.016;19.890;2023-01-01T04:20:28;9.20;;;5.32;;
19691;SDS011;42748;50.016;19.890;2023-01-01T04:22:59;10.48;;;5.90;;
19691;SDS011;42748;50.016;19.890;2023-01-01T04:25:28;12.55;;;6.13;;
19691;SDS011;42748;50.016;19.890;2023-01-01T04:27:55;10.35;;;5.60;;
19691;SDS011;42748;50.016;19.890;2023-01-01T04:30:24;9.88;;;6.03;;
19691;SDS011;42748;50.016;19.890;2023-01-01T04:32:53;12.60;;;6.10;;
19691;SDS011;42748;50.016;19.890;2023-01-01T04:35:20;8.93;;;5.35;;
19691;SDS011;42748;50.016;19.890;2023-01-01T04:37:47;11.43;;;5.85;;
19691;SDS011;42748;50.016;19.890;2023-01-01T04:40:14;10.68;;;5.85;;
19691;SDS011;42748;50.016;19.890;2023-01-01T04:42:41;12.15;;;6.10;;
19691;SDS011;42748;50.016;19.890;2023-01-01T04:45:09;11.88;;;6.35;;
19691;SDS011;42748;50.016;19.890;2023-01-01T04:47:40;12.27;;;6.78;;
19691;SDS011;42748;50.016;19.890;2023-01-01T04:50:08;12.75;;;6.35;;
19691;SDS011;42748;50.016;19.890;2023-01-01T04:52:35;12.38;;;6.82;;
19691;SDS011;42748;50.016;19.890;2023-01-01T04:55:02;12.18;;;6.75;;
19691;SDS011;42748;50.016;19.890;2023-01-01T04:57:30;11.30;;;6.53;;
19691;SDS011;42748;50.016;19.890;2023-01-01T04:59:57;12.32;;;6.40;;
19691;SDS011;42748;50.016;19.890;2023-01-01T05:02:24;12.27;;;5.88;;
19691;SDS011;42748;50.016;19.890;2023-01-01T05:04:52;11.20;;;6.18;;
19691;SDS011;42748;50.016;19.890;2023-01-01T05:07:19;7.40;;;4.82;;
19691;SDS011;42748;50.016;19.890;2023-01-01T05:09:46;8.55;;;5.22;;
19691;SDS011;42748;50.016;19.890;2023-01-01T05:12:13;9.05;;;5.00;;
19691;SDS011;42748;50.016;19.890;2023-01-01T05:14:41;8.50;;;5.38;;
19691;SDS011;42748;50.016;19.890;2023-01-01T05:17:08;10.43;;;5.60;;
19691;SDS011;42748;50.016;19.890;2023-01-01T05:19:35;9.75;;;5.40;;
19691;SDS011;42748;50.016;19.890;2023-01-01T05:22:02;10.68;;;5.70;;
19691;SDS011;42748;50.016;19.890;2023-01-01T05:24:36;10.00;;;5.35;;
19691;SDS011;42748;50.016;19.890;2023-01-01T05:27:03;12.30;;;5.53;;
19691;SDS011;42748;50.016;19.890;2023-01-01T05:29:31;8.95;;;5.05;;
19691;SDS011;42748;50.016;19.890;2023-01-01T05:31:58;9.48;;;5.22;;
19691;SDS011;42748;50.016;19.890;2023-01-01T05:34:25;7.97;;;5.07;;
19691;SDS011;42748;50.016;19.890;2023-01-01T05:36:52;9.95;;;5.55;;
19691;SDS011;42748;50.016;19.890;2023-01-01T05:39:20;9.40;;;4.90;;
19691;SDS011;42748;50.016;19.890;2023-01-01T05:41:47;10.15;;;5.28;;
19691;SDS011;42748;50.016;19.890;2023-01-01T05:44:14;8.75;;;4.90;;
19691;SDS011;42748;50.016;19.890;2023-01-01T05:46:42;11.20;;;5.30;;
19691;SDS011;42748;50.016;19.890;2023-01-01T05:49:10;9.18;;;5.13;;
19691;SDS011;42748;50.016;19.890;2023-01-01T05:51:38;12.27;;;5.75;;
19691;SDS011;42748;50.016;19.890;2023-01-01T05:54:04;8.45;;;4.78;;
19691;SDS011;42748;50.016;19.890;2023-01-01T05:56:31;10.35;;;5.55;;
19691;SDS011;42748;50.016;19.890;2023-01-01T05:58:59;10.10;;;5.45;;
19691;SDS011;42748;50.016;19.890;2023-01-01T06:01:28;10.73;;;5.45;;
19691;SDS011;42748;50.016;19.890;2023-01-01T06:03:56;10.50;;;5.28;;
19691;SDS011;42748;50.016;19.890;2023-01-01T06:06:26;11.27;;;5.97;;
19691;SDS011;42748;50.016;19.890;2023-01-01T06:08:56;9.65;;;5.68;;
19691;SDS011;42748;50.016;19.890;2023-01-01T06:11:25;10.55;;;5.88;;
19691;SDS011;42748;50.016;19.890;2023-01-01T06:13:54;11.23;;;5.88;;
19691;SDS011;42748;50.016;19.890;2023-01-01T06:16:22;9.93;;;5.82;;
19691;SDS011;42748;50.016;19.890;2023-01-01T06:18:50;11.77;;;6.63;;
19691;SDS011;42748;50.016;19.890;2023-01-01T06:21:18;11.60;;;6.20;;
19691;SDS011;42748;50.016;19.890;2023-01-01T06:23:47;11.18;;;5.97;;
19691;SDS011;42748;50.016;19.890;2023-01-01T06:26:22;10.95;;;6.40;;
19691;SDS011;42748;50.016;19.890;2023-01-01T06:28:50;12.75;;;6.72;;
19691;SDS011;42748;50.016;19.890;2023-01-01T06:31:18;11.05;;;6.38;;
19691;SDS011;42748;50.016;19.890;2023-01-01T06:33:47;16.83;;;7.45;;
19691;SDS011;42748;50.016;19.890;2023-01-01T06:36:16;12.63;;;7.40;;
19691;SDS011;42748;50.016;19.890;2023-01-01T06:38:46;13.73;;;7.38;;
19691;SDS011;42748;50.016;19.890;2023-01-01T06:41:15;13.23;;;7.45;;
19691;SDS011;42748;50.016;19.890;2023-01-01T06:43:45;17.88;;;9.07;;
19691;SDS011;42748;50.016;19.890;2023-01-01T06:46:16;17.25;;;10.18;;
19691;SDS011;42748;50.016;19.890;2023-01-01T06:48:48;21.70;;;10.90;;
19691;SDS011;42748;50.016;19.890;2023-01-01T06:51:17;21.95;;;11.68;;
19691;SDS011;42748;50.016;19.890;2023-01-01T06:53:49;21.30;;;11.48;;
19691;SDS011;42748;50.016;19.890;2023-01-01T06:56:17;24.15;;;11.73;;
19691;SDS011;42748;50.016;19.890;2023-01-01T06:58:44;25.00;;;13.25;;
19691;SDS011;42748;50.016;19.890;2023-01-01T07:01:13;27.67;;;13.90;;
19691;SDS011;42748;50.016;19.890;2023-01-01T07:03:43;29.63;;;14.70;;
19691;SDS011;42748;50.016;19.890;2023-01-01T07:06:15;27.92;;;14.55;;
19691;SDS011;42748;50.016;19.890;2023-01-01T07:08:42;25.35;;;13.55;;
19691;SDS011;42748;50.016;19.890;2023-01-01T07:11:09;24.50;;;13.35;;
19691;SDS011;42748;50.016;19.890;2023-01-01T07:13:37;27.75;;;13.77;;
19691;SDS011;42748;50.016;19.890;2023-01-01T07:16:04;23.23;;;12.80;;
19691;SDS011;42748;50.016;19.890;2023-01-01T07:18:38;24.33;;;12.55;;
19691;SDS011;42748;50.016;19.890;2023-01-01T07:21:06;24.52;;;12.60;;
19691;SDS011;42748;50.016;19.890;2023-01-01T07:24:01;22.92;;;12.95;;
19691;SDS011;42748;50.016;19.890;2023-01-01T07:26:30;25.55;;;13.43;;
19691;SDS011;42748;50.016;19.890;2023-01-01T07:28:59;25.48;;;13.13;;
19691;SDS011;42748;50.016;19.890;2023-01-01T07:31:34;21.13;;;12.15;;
19691;SDS011;42748;50.016;19.890;2023-01-01T07:34:04;22.92;;;12.73;;
19691;SDS011;42748;50.016;19.890;2023-01-01T07:36:31;25.85;;;13.40;;
19691;SDS011;42748;50.016;19.890;2023-01-01T07:38:58;23.85;;;12.75;;
19691;SDS011;42748;50.016;19.890;2023-01-01T07:41:26;24.77;;;12.93;;
19691;SDS011;42748;50.016;19.890;2023-01-01T07:43:53;25.23;;;12.95;;
19691;SDS011;42748;50.016;19.890;2023-01-01T07:46:20;26.17;;;14.27;;
19691;SDS011;42748;50.016;19.890;2023-01-01T07:48:47;25.48;;;12.73;;
19691;SDS011;42748;50.016;19.890;2023-01-01T07:51:14;28.00;;;13.88;;
19691;SDS011;42748;50.016;19.890;2023-01-01T07:53:42;26.92;;;14.50;;
19691;SDS011;42748;50.016;19.890;2023-01-01T07:56:09;26.85;;;13.80;;
19691;SDS011;42748;50.016;19.890;2023-01-01T07:58:39;26.45;;;13.82;;
19691;SDS011;42748;50.016;19.890;2023-01-01T08:01:08;25.55;;;13.70;;
19691;SDS011;42748;50.016;19.890;2023-01-01T08:03:37;25.02;;;13.57;;
19691;SDS011;42748;50.016;19.890;2023-01-01T08:06:05;26.38;;;13.73;;
19691;SDS011;42748;50.016;19.890;2023-01-01T08:08:34;26.95;;;13.82;;
19691;SDS011;42748;50.016;19.890;2023-01-01T08:11:01;24.05;;;13.70;;
19691;SDS011;42748;50.016;19.890;2023-01-01T08:13:29;24.83;;;13.10;;
19691;SDS011;42748;50.016;19.890;2023-01-01T08:15:57;28.38;;;14.32;;
19691;SDS011;42748;50.016;19.890;2023-01-01T08:18:24;26.27;;;13.95;;
19691;SDS011;42748;50.016;19.890;2023-01-01T08:20:51;28.00;;;14.35;;
19691;SDS011;42748;50.016;19.890;2023-01-01T08:23:19;27.63;;;13.73;;
19691;SDS011;42748;50.016;19.890;2023-01-01T08:25:46;29.40;;;14.65;;
19691;SDS011;42748;50.016;19.890;2023-01-01T08:28:13;25.67;;;13.65;;
19691;SDS011;42748;50.016;19.890;2023-01-01T08:30:40;25.20;;;13.48;;
19691;SDS011;42748;50.016;19.890;2023-01-01T08:33:07;26.35;;;12.85;;
19691;SDS011;42748;50.016;19.890;2023-01-01T08:35:35;23.83;;;13.25;;
19691;SDS011;42748;50.016;19.890;2023-01-01T08:38:05;23.27;;;12.77;;
19691;SDS011;42748;50.016;19.890;2023-01-01T08:40:32;25.45;;;12.77;;
19691;SDS011;42748;50.016;19.890;2023-01-01T08:42:59;24.10;;;12.30;;
19691;SDS011;42748;50.016;19.890;2023-01-01T08:45:26;24.55;;;12.45;;
19691;SDS011;42748;50.016;19.890;2023-01-01T08:47:53;22.23;;;12.10;;
19691;SDS011;42748;50.016;19.890;2023-01-01T08:50:20;23.48;;;12.07;;
19691;SDS011;42748;50.016;19.890;2023-01-01T08:52:48;25.13;;;12.23;;
19691;SDS011;42748;50.016;19.890;2023-01-01T08:55:15;23.98;;;12.23;;
19691;SDS011;42748;50.016;19.890;2023-01-01T08:57:42;22.85;;;12.68;;
19691;SDS011;42748;50.016;19.890;2023-01-01T09:00:09;22.05;;;12.25;;
19691;SDS011;42748;50.016;19.890;2023-01-01T09:02:38;24.15;;;12.65;;
19691;SDS011;42748;50.016;19.890;2023-01-01T09:05:06;23.63;;;12.90;;
19691;SDS011;42748;50.016;19.890;2023-01-01T09:07:33;23.90;;;12.60;;
19691;SDS011;42748;50.016;19.890;2023-01-01T09:10:00;23.45;;;12.52;;
19691;SDS011;42748;50.016;19.890;2023-01-01T09:12:27;24.50;;;12.98;;
19691;SDS011;42748;50.016;19.890;2023-01-01T09:14:55;22.17;;;12.70;;
19691;SDS011;42748;50.016;19.890;2023-01-01T09:17:22;25.42;;;13.18;;
19691;SDS011;42748;50.016;19.890;2023-01-01T09:19:49;27.55;;;13.75;;
19691;SDS011;42748;50.016;19.890;2023-01-01T09:22:16;26.23;;;13.80;;
19691;SDS011;42748;50.016;19.890;2023-01-01T09:24:43;26.30;;;14.20;;
19691;SDS011;42748;50.016;19.890;2023-01-01T09:27:10;27.67;;;14.85;;
19691;SDS011;42748;50.016;19.890;2023-01-01T09:29:37;28.73;;;15.27;;
19691;SDS011;42748;50.016;19.890;2023-01-01T09:32:04;28.73;;;15.18;;
19691;SDS011;42748;50.016;19.890;2023-01-01T09:34:31;30.42;;;16.35;;
19691;SDS011;42748;50.016;19.890;2023-01-01T09:36:58;27.63;;;16.08;;
19691;SDS011;42748;50.016;19.890;2023-01-01T09:39:25;30.55;;;16.08;;
19691;SDS011;42748;50.016;19.890;2023-01-01T09:42:12;27.95;;;16.17;;
19691;SDS011;42748;50.016;19.890;2023-01-01T09:47:48;31.30;;;15.75;;
19691;SDS011;42748;50.016;19.890;2023-01-01T09:50:23;30.60;;;16.27;;
19691;SDS011;42748;50.016;19.890;2023-01-01T09:52:58;33.80;;;16.17;;
19691;SDS011;42748;50.016;19.890;2023-01-01T09:55:33;30.35;;;15.68;;
19691;SDS011;42748;50.016;19.890;2023-01-01T09:58:20;25.92;;;14.23;;
19691;SDS011;42748;50.016;19.890;2023-01-01T10:00:55;26.55;;;14.45;;
19691;SDS011;42748;50.016;19.890;2023-01-01T10:06:22;24.83;;;13.73;;
19691;SDS011;42748;50.016;19.890;2023-01-01T10:09:06;25.48;;;13.52;;
19691;SDS011;42748;50.016;19.890;2023-01-01T10:14:34;24.20;;;12.63;;
19691;SDS011;42748;50.016;19.890;2023-01-01T10:17:27;25.33;;;13.10;;
19691;SDS011;42748;50.016;19.890;2023-01-01T10:20:02;21.67;;;11.65;;
19691;SDS011;42748;50.016;19.890;2023-01-01T10:22:37;23.80;;;12.43;;
19691;SDS011;42748;50.016;19.890;2023-01-01T10:25:17;21.17;;;11.95;;
19691;SDS011;42748;50.016;19.890;2023-01-01T10:27:48;22.85;;;12.30;;
19691;SDS011;42748;50.016;19.890;2023-01-01T10:30:25;19.90;;;11.75;;
19691;SDS011;42748;50.016;19.890;2023-01-01T10:32:53;22.77;;;12.30;;
19691;SDS011;42748;50.016;19.890;2023-01-01T10:37:59;33.78;;;21.48;;
19691;SDS011;42748;50.016;19.890;2023-01-01T10:40:29;22.20;;;12.27;;
19691;SDS011;42748;50.016;19.890;2023-01-01T10:42:57;22.25;;;12.52;;
19691;SDS011;42748;50.016;19.890;2023-01-01T10:50:44;21.58;;;13.02;;
19691;SDS011;42748;50.016;19.890;2023-01-01T10:53:18;21.60;;;12.07;;
19691;SDS011;42748;50.016;19.890;2023-01-01T10:55:49;22.05;;;12.45;;
19691;SDS011;42748;50.016;19.890;2023-01-01T11:01:03;22.45;;;12.32;;
19691;SDS011;42748;50.016;19.890;2023-01-01T11:03:33;22.20;;;13.32;;
19691;SDS011;42748;50.016;19.890;2023-01-01T11:08:49;21.50;;;12.27;;
19691;SDS011;42748;50.016;19.890;2023-01-01T11:11:19;22.50;;;12.10;;
19691;SDS011;42748;50.016;19.890;2023-01-01T11:13:58;22.38;;;13.02;;
19691;SDS011;42748;50.016;19.890;2023-01-01T11:16:27;25.33;;;12.32;;
19691;SDS011;42748;50.016;19.890;2023-01-01T11:18:59;20.80;;;12.07;;
19691;SDS011;42748;50.016;19.890;2023-01-01T11:21:31;20.50;;;11.38;;
19691;SDS011;42748;50.016;19.890;2023-01-01T11:26:44;19.70;;;10.88;;
19691;SDS011;42748;50.016;19.890;2023-01-01T11:29:27;21.52;;;10.52;;
19691;SDS011;42748;50.016;19.890;2023-01-01T11:31:55;18.02;;;10.23;;
19691;SDS011;42748;50.016;19.890;2023-01-01T11:39:44;16.70;;;9.95;;
19691;SDS011;42748;50.016;19.890;2023-01-01T11:42:18;20.77;;;10.55;;
19691;SDS011;42748;50.016;19.890;2023-01-01T11:44:59;17.58;;;9.80;;
19691;SDS011;42748;50.016;19.890;2023-01-01T11:50:10;18.30;;;9.77;;
19691;SDS011;42748;50.016;19.890;2023-01-01T11:52:48;17.25;;;9.88;;
19691;SDS011;42748;50.016;19.890;2023-01-01T11:58:20;18.88;;;9.75;;
19691;SDS011;42748;50.016;19.890;2023-01-01T12:00:59;20.88;;;10.98;;
19691;SDS011;42748;50.016;19.890;2023-01-01T12:03:41;18.65;;;9.82;;
19691;SDS011;42748;50.016;19.890;2023-01-01T12:06:22;19.65;;;10.70;;
19691;SDS011;42748;50.016;19.890;2023-01-01T12:09:14;19.20;;;10.50;;
19691;SDS011;42748;50.016;19.890;2023-01-01T12:15:01;19.55;;;11.25;;
19691;SDS011;42748;50.016;19.890;2023-01-01T12:17:50;21.88;;;11.25;;
19691;SDS011;42748;50.016;19.890;2023-01-01T12:20:36;17.73;;;9.80;;
19691;SDS011;42748;50.016;19.890;2023-01-01T12:23:09;19.55;;;10.55;;
19691;SDS011;42748;50.016;19.890;2023-01-01T12:25:39;19.65;;;10.68;;
19691;SDS011;42748;50.016;19.890;2023-01-01T12:28:14;16.50;;;9.18;;
19691;SDS011;42748;50.016;19.890;2023-01-01T12:53:33;21.35;;;10.10;;
19691;SDS011;42748;50.016;19.890;2023-01-01T12:56:20;20.45;;;11.10;;
19691;SDS011;42748;50.016;19.890;2023-01-01T12:58:56;18.35;;;10.52;;
19691;SDS011;42748;50.016;19.890;2023-01-01T13:01:32;17.67;;;10.10;;
19691;SDS011;42748;50.016;19.890;2023-01-01T13:04:03;16.42;;;10.18;;
19691;SDS011;42748;50.016;19.890;2023-01-01T13:09:36;18.80;;;10.15;;
19691;SDS011;42748;50.016;19.890;2023-01-01T13:12:07;21.40;;;11.45;;
19691;SDS011;42748;50.016;19.890;2023-01-01T13:14:44;18.33;;;11.00;;
19691;SDS011;42748;50.016;19.890;2023-01-01T13:17:26;18.33;;;10.35;;
19691;SDS011;42748;50.016;19.890;2023-01-01T13:20:00;20.83;;;11.65;;
19691;SDS011;42748;50.016;19.890;2023-01-01T13:22:47;23.80;;;11.63;;
19691;SDS011;42748;50.016;19.890;2023-01-01T13:30:47;21.67;;;11.82;;
19691;SDS011;42748;50.016;19.890;2023-01-01T13:46:34;22.23;;;11.45;;
19691;SDS011;42748;50.016;19.890;2023-01-01T14:03:19;21.63;;;12.40;;
19691;SDS011;42748;50.016;19.890;2023-01-01T14:05:54;21.92;;;12.05;;
19691;SDS011;42748;50.016;19.890;2023-01-01T14:08:31;22.77;;;12.18;;
19691;SDS011;42748;50.016;19.890;2023-01-01T14:11:00;21.92;;;12.23;;
19691;SDS011;42748;50.016;19.890;2023-01-01T14:13:30;20.48;;;11.35;;
19691;SDS011;42748;50.016;19.890;2023-01-01T14:16:06;22.58;;;11.75;;
19691;SDS011;42748;50.016;19.890;2023-01-01T14:18:42;23.80;;;11.02;;
19691;SDS011;42748;50.016;19.890;2023-01-01T14:21:23;23.60;;;11.65;;
19691;SDS011;42748;50.016;19.890;2023-01-01T14:24:05;21.85;;;11.57;;
19691;SDS011;42748;50.016;19.890;2023-01-01T14:26:35;22.23;;;11.82;;
19691;SDS011;42748;50.016;19.890;2023-01-01T14:29:08;25.17;;;12.27;;
19691;SDS011;42748;50.016;19.890;2023-01-01T14:31:40;22.65;;;11.75;;
19691;SDS011;42748;50.016;19.890;2023-01-01T14:34:14;23.70;;;11.75;;
19691;SDS011;42748;50.016;19.890;2023-01-01T14:36:48;25.55;;;12.70;;
19691;SDS011;42748;50.016;19.890;2023-01-01T14:39:24;21.17;;;12.50;;
19691;SDS011;42748;50.016;19.890;2023-01-01T14:41:57;25.17;;;13.10;;
19691;SDS011;42748;50.016;19.890;2023-01-01T14:44:38;26.60;;;13.45;;
19691;SDS011;42748;50.016;19.890;2023-01-01T14:49:50;29.02;;;14.70;;
19691;SDS011;42748;50.016;19.890;2023-01-01T14:52:27;28.05;;;15.00;;
19691;SDS011;42748;50.016;19.890;2023-01-01T14:54:57;30.05;;;15.15;;
19691;SDS011;42748;50.016;19.890;2023-01-01T14:57:26;29.75;;;15.32;;
19691;SDS011;42748;50.016;19.890;2023-01-01T14:59:56;29.20;;;14.82;;
19691;SDS011;42748;50.016;19.890;2023-01-01T15:02:27;28.25;;;15.45;;
19691;SDS011;42748;50.016;19.890;2023-01-01T15:04:56;31.08;;;15.00;;
19691;SDS011;42748;50.016;19.890;2023-01-01T15:07:28;28.17;;;15.00;;
19691;SDS011;42748;50.016;19.890;2023-01-01T15:09:57;26.58;;;14.10;;
19691;SDS011;42748;50.016;19.890;2023-01-01T15:12:28;27.70;;;14.30;;
19691;SDS011;42748;50.016;19.890;2023-01-01T15:14:56;29.10;;;14.98;;
19691;SDS011;42748;50.016;19.890;2023-01-01T15:17:24;25.02;;;12.82;;
19691;SDS011;42748;50.016;19.890;2023-01-01T15:20:18;27.73;;;13.98;;
19691;SDS011;42748;50.016;19.890;2023-01-01T15:22:46;31.52;;;12.88;;
19691;SDS011;42748;50.016;19.890;2023-01-01T15:25:15;31.10;;;15.65;;
19691;SDS011;42748;50.016;19.890;2023-01-01T15:27:48;30.05;;;15.32;;
19691;SDS011;42748;50.016;19.890;2023-01-01T15:30:27;27.65;;;15.30;;
19691;SDS011;42748;50.016;19.890;2023-01-01T15:33:07;29.48;;;15.52;;
19691;SDS011;42748;50.016;19.890;2023-01-01T15:35:39;29.52;;;16.15;;
19691;SDS011;42748;50.016;19.890;2023-01-01T15:38:16;34.78;;;17.70;;
19691;SDS011;42748;50.016;19.890;2023-01-01T15:40:49;34.30;;;17.58;;
19691;SDS011;42748;50.016;19.890;2023-01-01T15:48:42;36.08;;;18.52;;
19691;SDS011;42748;50.016;19.890;2023-01-01T15:51:16;37.13;;;19.50;;
19691;SDS011;42748;50.016;19.890;2023-01-01T15:53:49;36.13;;;18.85;;
19691;SDS011;42748;50.016;19.890;2023-01-01T15:56:23;33.92;;;17.55;;
19691;SDS011;42748;50.016;19.890;2023-01-01T15:58:54;35.50;;;18.55;;
19691;SDS011;42748;50.016;19.890;2023-01-01T16:01:34;34.90;;;18.45;;
19691;SDS011;42748;50.016;19.890;2023-01-01T16:04:07;40.55;;;18.92;;
19691;SDS011;42748;50.016;19.890;2023-01-01T16:06:54;34.40;;;18.13;;
19691;SDS011;42748;50.016;19.890;2023-01-01T16:09:23;36.67;;;17.83;;
19691;SDS011;42748;50.016;19.890;2023-01-01T16:11:52;36.90;;;18.45;;
19691;SDS011;42748;50.016;19.890;2023-01-01T16:14:20;37.17;;;18.88;;
19691;SDS011;42748;50.016;19.890;2023-01-01T16:16:55;33.28;;;17.30;;
19691;SDS011;42748;50.016;19.890;2023-01-01T16:19:27;32.30;;;16.90;;
19691;SDS011;42748;50.016;19.890;2023-01-01T16:21:56;36.20;;;17.73;;
19691;SDS011;42748;50.016;19.890;2023-01-01T16:24:23;31.08;;;16.50;;
19691;SDS011;42748;50.016;19.890;2023-01-01T16:26:50;31.02;;;17.42;;
19691;SDS011;42748;50.016;19.890;2023-01-01T16:29:17;33.70;;;17.35;;
19691;SDS011;42748;50.016;19.890;2023-01-01T16:31:44;30.60;;;16.85;;
19691;SDS011;42748;50.016;19.890;2023-01-01T16:34:13;32.75;;;16.42;;
19691;SDS011;42748;50.016;19.890;2023-01-01T16:36:43;32.90;;;16.98;;
19691;SDS011;42748;50.016;19.890;2023-01-01T16:39:10;30.83;;;15.90;;
19691;SDS011;42748;50.016;19.890;2023-01-01T16:41:41;32.78;;;16.98;;
19691;SDS011;42748;50.016;19.890;2023-01-01T16:44:14;31.08;;;16.02;;
19691;SDS011;42748;50.016;19.890;2023-01-01T16:46:41;30.67;;;15.57;;
19691;SDS011;42748;50.016;19.890;2023-01-01T16:49:09;34.58;;;18.65;;
19691;SDS011;42748;50.016;19.890;2023-01-01T16:51:36;31.25;;;16.30;;
19691;SDS011;42748;50.016;19.890;2023-01-01T16:54:09;27.15;;;14.88;;
19691;SDS011;42748;50.016;19.890;2023-01-01T16:56:36;30.55;;;16.42;;
19691;SDS011;42748;50.016;19.890;2023-01-01T16:59:03;37.53;;;18.83;;
19691;SDS011;42748;50.016;19.890;2023-01-01T17:01:30;36.80;;;21.25;;
19691;SDS011;42748;50.016;19.890;2023-01-01T17:04:00;49.63;;;26.38;;
19691;SDS011;42748;50.016;19.890;2023-01-01T17:06:27;52.65;;;27.30;;